Time;durP1;ratioP1;P1;durP2;ratioP2;P2;SDS_P1;SDS_P2;PMS_P1;PMS_P2;Temp;Humidity;BMP_temperature;BMP_pressure;BME280_temperature;BME280_humidity;BME280_pressure;Samples;Min_cycle;Max_cycle;Signal;HPM_P1;HPM_P2
2022/04/19 00:00:59;;;;;;;5.43;1.40;;;12.90;1.00;;;;;;5073152;28;20451;-80
2022/04/19 00:03:28;;;;;;;2.03;1.40;;;12.90;1.00;;;;;;5060926;28;20455;-78
2022/04/19 00:05:56;;;;;;;1.70;1.60;;;12.90;1.00;;;;;;5072482;28;20474;-81
2022/04/19 00:08:25;;;;;;;1.93;1.30;;;12.90;1.00;;;;;;5065694;28;20449;-82
2022/04/19 00:10:53;;;;;;;1.87;1.40;;;12.80;1.00;;;;;;5060194;28;20452;-80
2022/04/19 00:13:21;;;;;;;2.13;1.57;;;12.70;1.00;;;;;;5060129;28;20455;-81
2022/04/19 00:15:50;;;;;;;4.20;1.47;;;12.60;1.00;;;;;;5060676;28;20480;-80
2022/04/19 00:18:19;;;;;;;3.07;1.43;;;12.60;1.00;;;;;;5057960;28;20510;-80
2022/04/19 00:20:49;;;;;;;1.70;1.30;;;12.60;1.00;;;;;;5058051;28;20872;-80
2022/04/19 00:23:18;;;;;;;1.73;1.60;;;12.60;1.00;;;;;;5056878;28;20454;-80
2022/04/19 00:25:47;;;;;;;2.20;1.37;;;12.60;1.00;;;;;;5061884;28;21878;-79
2022/04/19 00:28:16;;;;;;;3.60;1.70;;;12.60;1.00;;;;;;5059558;28;20467;-81
2022/04/19 00:30:46;;;;;;;2.77;1.60;;;12.60;1.00;;;;;;5060244;28;20449;-80
2022/04/19 00:33:15;;;;;;;2.13;1.60;;;12.60;1.00;;;;;;5059626;28;21274;-80
2022/04/19 00:35:43;;;;;;;2.50;1.60;;;12.60;1.00;;;;;;5059840;28;20489;-82
2022/04/19 00:38:13;;;;;;;2.53;1.50;;;12.60;1.00;;;;;;5061609;28;20475;-81
2022/04/19 00:40:41;;;;;;;2.57;1.30;;;12.60;1.00;;;;;;5058902;28;20452;-81
2022/04/19 00:43:10;;;;;;;1.60;1.50;;;12.40;1.00;;;;;;5062667;28;20454;-80
2022/04/19 00:45:38;;;;;;;1.93;1.47;;;12.40;1.00;;;;;;5054018;28;20459;-79
2022/04/19 00:48:07;;;;;;;1.10;1.00;;;12.40;1.00;;;;;;5066909;28;20450;-80
2022/04/19 00:50:35;;;;;;;1.43;1.30;;;12.40;1.00;;;;;;5058275;28;20455;-81
2022/04/19 00:53:04;;;;;;;1.73;1.63;;;12.40;1.00;;;;;;5061019;28;20462;-82
2022/04/19 00:55:34;;;;;;;1.50;1.40;;;12.40;1.00;;;;;;5058529;28;20454;-79
2022/04/19 00:58:03;;;;;;;2.40;1.20;;;12.30;1.00;;;;;;5056295;28;20470;-81
2022/04/19 01:00:31;;;;;;;1.60;1.33;;;12.20;1.00;;;;;;5058760;28;20459;-80
2022/04/19 01:02:59;;;;;;;2.40;1.77;;;12.20;1.00;;;;;;5063937;28;20447;-81
2022/04/19 01:05:33;;;;;;;4.43;1.57;;;12.30;1.00;;;;;;5064296;28;20700;-79
2022/04/19 01:08:01;;;;;;;1.57;1.43;;;12.30;1.00;;;;;;5066336;28;20455;-80
2022/04/19 01:10:30;;;;;;;1.93;1.60;;;12.20;1.00;;;;;;5063791;28;20459;-80
2022/04/19 01:13:17;;;;;;;3.20;1.50;;;12.10;1.00;;;;;;5061025;28;20551;-80
2022/04/19 01:15:47;;;;;;;1.57;1.43;;;12.20;1.00;;;;;;5063434;28;20478;-80
2022/04/19 01:18:20;;;;;;;3.00;1.50;;;12.10;1.00;;;;;;5065220;28;20489;-80
2022/04/19 01:20:49;;;;;;;3.03;1.43;;;12.40;1.00;;;;;;5062042;28;20490;-81
2022/04/19 01:23:19;;;;;;;1.90;1.60;;;12.10;1.00;;;;;;5064904;28;20443;-80
2022/04/19 01:25:47;;;;;;;1.70;1.60;;;12.00;1.00;;;;;;5058969;28;20474;-80
2022/04/19 01:28:19;;;;;;;1.53;1.43;;;11.90;1.00;;;;;;5062455;28;20873;-81
2022/04/19 01:30:52;;;;;;;1.60;1.50;;;11.90;1.00;;;;;;5059003;28;20452;-78
2022/04/19 01:33:21;;;;;;;1.50;1.20;;;11.90;1.00;;;;;;5072370;28;20455;-80
2022/04/19 01:35:50;;;;;;;2.53;1.90;;;11.90;1.00;;;;;;5054983;28;20468;-80
2022/04/19 01:38:20;;;;;;;2.50;1.70;;;11.90;1.00;;;;;;5061966;28;20565;-81
2022/04/19 01:40:48;;;;;;;3.07;1.53;;;12.00;1.00;;;;;;5062270;28;20550;-80
2022/04/19 01:43:16;;;;;;;1.63;1.33;;;11.90;1.00;;;;;;5061885;28;20444;-81
2022/04/19 01:45:44;;;;;;;1.80;1.67;;;11.90;1.00;;;;;;5057904;28;20472;-80
2022/04/19 01:48:13;;;;;;;2.23;1.87;;;11.70;1.00;;;;;;5061795;28;20802;-81
2022/04/19 01:50:41;;;;;;;1.50;1.40;;;11.70;1.00;;;;;;5062359;28;20480;-81
2022/04/19 01:53:09;;;;;;;2.70;2.33;;;11.80;1.00;;;;;;5067044;28;20455;-80
2022/04/19 01:55:39;;;;;;;1.80;1.70;;;11.80;1.00;;;;;;5061631;28;20520;-81
2022/04/19 01:58:07;;;;;;;2.30;2.10;;;11.70;1.00;;;;;;5064724;28;20462;-80
2022/04/19 02:00:35;;;;;;;1.60;1.50;;;11.70;1.00;;;;;;5064311;28;20815;-81
2022/04/19 02:03:03;;;;;;;2.33;1.97;;;11.70;1.00;;;;;;5060652;28;20458;-81
2022/04/19 02:05:32;;;;;;;4.20;2.13;;;11.70;1.00;;;;;;5053008;28;20449;-81
2022/04/19 02:08:00;;;;;;;2.03;1.50;;;11.90;1.00;;;;;;5060782;28;20464;-79
2022/04/19 02:10:28;;;;;;;3.70;2.17;;;11.60;1.00;;;;;;5062823;28;20795;-81
2022/04/19 02:12:58;;;;;;;2.50;1.83;;;11.60;1.00;;;;;;5060967;28;20990;-82
2022/04/19 02:15:26;;;;;;;1.50;1.40;;;11.40;1.00;;;;;;5060015;28;24200;-81
2022/04/19 02:17:54;;;;;;;1.70;1.60;;;11.30;1.00;;;;;;5060579;28;20998;-81
2022/04/19 02:20:22;;;;;;;2.17;1.50;;;11.40;1.00;;;;;;5054527;28;22426;-81
2022/04/19 02:22:50;;;;;;;1.50;1.33;;;11.40;1.00;;;;;;5056788;28;20502;-81
2022/04/19 02:25:19;;;;;;;4.87;2.10;;;11.50;1.00;;;;;;5060399;28;20446;-79
2022/04/19 02:27:47;;;;;;;3.67;2.03;;;11.50;1.00;;;;;;5060742;28;20547;-80
2022/04/19 02:30:18;;;;;;;3.60;2.27;;;11.40;1.00;;;;;;5060149;28;20457;-81
2022/04/19 02:32:47;;;;;;;3.23;1.80;;;11.40;1.00;;;;;;5060478;28;20446;-79
2022/04/19 02:35:18;;;;;;;3.30;2.60;;;11.50;1.00;;;;;;5055665;28;20947;-78
2022/04/19 02:37:50;;;;;;;5.60;2.53;;;11.50;1.00;;;;;;5059158;28;20443;-80
2022/04/19 02:40:19;;;;;;;1.93;1.40;;;11.30;1.00;;;;;;5057099;28;20462;-80
2022/04/19 02:42:48;;;;;;;2.90;2.00;;;11.30;1.00;;;;;;5062352;28;20485;-80
2022/04/19 02:45:19;;;;;;;2.23;1.20;;;11.60;1.00;;;;;;5055148;28;20480;-80
2022/04/19 02:47:48;;;;;;;2.57;2.23;;;11.30;1.00;;;;;;5055168;28;20471;-80
2022/04/19 02:50:16;;;;;;;2.83;1.80;;;11.30;1.00;;;;;;5058955;28;20481;-80
2022/04/19 02:52:45;;;;;;;1.93;1.43;;;11.30;1.00;;;;;;5057325;28;20455;-80
2022/04/19 02:55:13;;;;;;;2.53;1.33;;;11.20;1.00;;;;;;5060074;28;20465;-80
2022/04/19 02:57:41;;;;;;;4.57;1.70;;;11.40;1.00;;;;;;5054115;28;20460;-80
2022/04/19 03:00:11;;;;;;;3.50;1.40;;;11.20;1.00;;;;;;5058864;28;20485;-82
2022/04/19 03:02:41;;;;;;;1.80;1.60;;;11.20;1.00;;;;;;5060518;28;20467;-80
2022/04/19 03:05:09;;;;;;;2.77;1.33;;;11.20;1.00;;;;;;5059639;28;21035;-82
2022/04/19 03:07:38;;;;;;;4.67;1.93;;;11.10;1.00;;;;;;5057220;28;20480;-81
2022/04/19 03:10:07;;;;;;;1.60;1.40;;;11.10;1.00;;;;;;5060701;28;20453;-81
2022/04/19 03:12:35;;;;;;;1.40;1.30;;;11.20;1.00;;;;;;5067736;28;20454;-82
2022/04/19 03:15:04;;;;;;;2.63;1.90;;;11.10;1.00;;;;;;5061727;28;20442;-78
2022/04/19 03:17:32;;;;;;;2.83;1.57;;;11.10;1.00;;;;;;5065200;28;21006;-79
2022/04/19 03:20:01;;;;;;;2.93;1.80;;;11.00;1.00;;;;;;5063498;28;20482;-80
2022/04/19 03:27:41;;;;;;;3.13;2.90;;;10.90;1.00;;;;;;5069107;28;20462;-80
2022/04/19 03:28:04;;;;;;;2.73;1.80;;;10.90;1.00;;;;;;5069532;28;21003;-81
2022/04/19 03:30:32;;;;;;;1.93;1.70;;;11.00;1.00;;;;;;5064116;28;20450;-80
2022/04/19 03:33:01;;;;;;;2.40;1.60;;;11.00;1.00;;;;;;5064982;28;20456;-80
2022/04/19 03:35:30;;;;;;;2.50;2.10;;;10.90;1.00;;;;;;5066655;28;20454;-81
2022/04/19 03:37:58;;;;;;;2.27;1.47;;;10.90;1.00;;;;;;5061647;28;20465;-80
2022/04/19 03:40:27;;;;;;;2.10;1.50;;;10.90;1.00;;;;;;5063150;28;20478;-80
2022/04/19 03:42:55;;;;;;;2.33;1.97;;;10.90;1.00;;;;;;5065053;28;20450;-81
2022/04/19 03:45:23;;;;;;;1.50;1.40;;;10.90;1.00;;;;;;5059103;28;20450;-80
2022/04/19 03:47:52;;;;;;;2.50;2.07;;;10.80;1.00;;;;;;5056569;28;20453;-80
2022/04/19 03:50:20;;;;;;;2.20;1.60;;;11.20;1.00;;;;;;5061418;28;20445;-80
2022/04/19 03:52:50;;;;;;;1.60;1.50;;;10.80;1.00;;;;;;5057821;28;21149;-79
2022/04/19 03:55:19;;;;;;;1.63;1.43;;;10.80;1.00;;;;;;5056238;28;21886;-80
2022/04/19 03:57:47;;;;;;;1.80;1.43;;;10.80;1.00;;;;;;5054857;28;20458;-81
2022/04/19 04:00:16;;;;;;;1.60;1.50;;;10.70;1.00;;;;;;5057935;28;20480;-81
2022/04/19 04:02:44;;;;;;;1.70;1.33;;;10.80;1.00;;;;;;5058179;28;20455;-82
2022/04/19 04:05:12;;;;;;;1.70;1.60;;;10.70;1.00;;;;;;5055872;28;20990;-82
2022/04/19 04:07:40;;;;;;;1.77;1.50;;;10.70;1.00;;;;;;5059816;28;20469;-82
2022/04/19 04:10:11;;;;;;;3.23;1.60;;;10.80;1.00;;;;;;5063399;28;20546;-82
2022/04/19 04:12:39;;;;;;;1.87;1.70;;;10.70;1.00;;;;;;5056617;28;21224;-80
2022/04/19 04:15:08;;;;;;;1.97;1.53;;;10.70;1.00;;;;;;5060361;28;20472;-81
2022/04/19 04:17:36;;;;;;;2.10;1.53;;;10.70;1.00;;;;;;5061001;28;20473;-81
2022/04/19 04:20:05;;;;;;;2.97;1.77;;;10.70;1.00;;;;;;5060533;28;20478;-80
2022/04/19 04:22:33;;;;;;;2.30;1.90;;;10.60;1.00;;;;;;5058840;28;20452;-81
2022/04/19 04:25:03;;;;;;;2.00;1.60;;;10.50;1.00;;;;;;5058619;28;20460;-79
2022/04/19 04:27:32;;;;;;;2.80;2.23;;;10.40;1.00;;;;;;5057357;28;24212;-79
2022/04/19 04:30:01;;;;;;;5.73;2.20;;;10.40;1.00;;;;;;5055330;28;20451;-79
2022/04/19 04:32:29;;;;;;;2.10;1.70;;;10.40;1.00;;;;;;5058125;28;20532;-78
2022/04/19 04:34:57;;;;;;;1.80;1.60;;;10.50;1.00;;;;;;5058408;28;20443;-80
2022/04/19 04:37:25;;;;;;;2.13;1.93;;;10.50;1.00;;;;;;5059439;28;20468;-81
2022/04/19 04:39:54;;;;;;;3.67;1.70;;;10.50;1.00;;;;;;5057609;28;20485;-81
2022/04/19 04:42:22;;;;;;;5.60;3.30;;;10.50;1.00;;;;;;5056045;28;21001;-81
2022/04/19 04:44:51;;;;;;;2.63;2.37;;;10.40;1.00;;;;;;5056875;28;20461;-79
2022/04/19 04:50:08;;;;;;;3.40;1.90;;;10.40;1.00;;;;;;5060034;28;20988;-80
2022/04/19 04:52:36;;;;;;;1.60;1.50;;;10.50;1.00;;;;;;5057242;28;21001;-79
2022/04/19 04:55:05;;;;;;;2.57;2.10;;;10.60;1.00;;;;;;5060415;28;20533;-77
2022/04/19 04:57:33;;;;;;;4.00;1.90;;;10.60;1.00;;;;;;5056479;28;20473;-80
2022/04/19 05:00:03;;;;;;;2.30;1.63;;;10.50;1.00;;;;;;5058819;28;21044;-82
2022/04/19 05:02:32;;;;;;;2.60;1.50;;;10.50;1.00;;;;;;5059263;28;20996;-80
2022/04/19 05:05:00;;;;;;;1.83;1.73;;;10.50;1.00;;;;;;5059028;28;20461;-80
2022/04/19 05:07:28;;;;;;;1.87;1.70;;;10.50;1.00;;;;;;5065337;28;20473;-80
2022/04/19 05:09:58;;;;;;;4.80;2.00;;;10.50;1.00;;;;;;5066940;28;20451;-79
2022/04/19 05:12:27;;;;;;;3.83;2.50;;;10.80;1.00;;;;;;5067557;28;20471;-80
2022/04/19 05:14:55;;;;;;;4.13;2.40;;;10.50;1.00;;;;;;5079309;28;20450;-80
2022/04/19 05:17:25;;;;;;;6.30;3.23;;;10.60;1.00;;;;;;5070189;28;20489;-80
2022/04/19 05:19:54;;;;;;;2.03;1.90;;;10.70;1.00;;;;;;5070377;28;20478;-80
2022/04/19 05:22:23;;;;;;;2.43;2.23;;;10.60;1.00;;;;;;5076830;28;20474;-80
2022/04/19 05:24:51;;;;;;;2.60;1.70;;;10.50;1.00;;;;;;5068609;28;20456;-81
2022/04/19 05:27:19;;;;;;;2.63;2.23;;;10.50;1.00;;;;;;5071056;28;20515;-80
2022/04/19 05:29:47;;;;;;;2.23;1.80;;;10.50;1.00;;;;;;5059529;28;20465;-81
2022/04/19 05:32:16;;;;;;;3.33;2.23;;;10.60;1.00;;;;;;5064125;28;20464;-79
2022/04/19 05:34:47;;;;;;;2.10;1.90;;;10.50;1.00;;;;;;5060873;28;20894;-79
2022/04/19 05:37:15;;;;;;;3.10;2.53;;;10.60;1.00;;;;;;5065472;28;20465;-81
2022/04/19 05:39:43;;;;;;;1.90;1.80;;;10.70;1.00;;;;;;5067406;28;20469;-80
2022/04/19 05:42:12;;;;;;;2.53;1.80;;;10.70;1.00;;;;;;5058774;28;20478;-81
2022/04/19 05:44:40;;;;;;;2.40;2.10;;;10.80;1.00;;;;;;5061485;28;20451;-79
2022/04/19 05:47:09;;;;;;;2.60;1.73;;;11.00;1.00;;;;;;5063773;28;20844;-82
2022/04/19 05:49:37;;;;;;;2.10;1.63;;;11.00;1.00;;;;;;5068418;28;20453;-81
2022/04/19 05:52:08;;;;;;;2.90;2.40;;;11.10;1.00;;;;;;5068212;28;20442;-80
2022/04/19 05:54:41;;;;;;;4.10;2.00;;;11.10;1.00;;;;;;5068269;28;20223;-79
2022/04/19 05:57:10;;;;;;;3.70;2.60;;;11.10;1.00;;;;;;5063966;28;20449;-81
2022/04/19 05:59:38;;;;;;;3.50;2.40;;;11.20;1.00;;;;;;5062421;28;20442;-79
2022/04/19 06:04:53;;;;;;;2.50;1.80;;;11.40;1.00;;;;;;5066658;28;20455;-78
2022/04/19 06:07:24;;;;;;;2.87;2.43;;;11.40;1.00;;;;;;5068294;28;20482;-79
2022/04/19 06:09:56;;;;;;;4.00;2.78;;;11.40;1.00;;;;;;5059840;28;20438;-79
2022/04/19 06:12:24;;;;;;;7.10;2.40;;;11.50;1.00;;;;;;5068327;28;20189;-79
2022/04/19 06:14:53;;;;;;;4.10;2.53;;;11.60;1.00;;;;;;5060891;28;20445;-79
2022/04/19 06:17:22;;;;;;;1.87;1.70;;;11.60;1.00;;;;;;5069038;28;20482;-78
2022/04/19 06:19:50;;;;;;;3.90;2.07;;;11.70;1.00;;;;;;5066005;28;20501;-80
2022/04/19 06:22:18;;;;;;;2.23;2.03;;;11.80;1.00;;;;;;5061225;28;20545;-81
2022/04/19 06:24:48;;;;;;;6.93;2.17;;;12.00;1.00;;;;;;5060269;28;20537;-80
2022/04/19 06:27:17;;;;;;;2.33;2.03;;;12.10;1.00;;;;;;5061813;28;20471;-80
2022/04/19 06:29:45;;;;;;;3.30;1.73;;;12.20;1.00;;;;;;5068980;28;20443;-82
2022/04/19 06:32:13;;;;;;;3.97;2.30;;;12.30;1.00;;;;;;5068035;28;21036;-80
2022/04/19 06:34:42;;;;;;;3.00;2.07;;;12.40;1.00;;;;;;5067013;28;20487;-81
2022/04/19 06:37:10;;;;;;;2.83;2.00;;;12.50;1.00;;;;;;5053333;28;20476;-81
2022/04/19 06:39:39;;;;;;;2.47;2.27;;;12.60;1.00;;;;;;5061157;28;20459;-80
2022/04/19 06:42:09;;;;;;;2.65;2.25;;;12.60;1.00;;;;;;5059279;28;20473;-80
2022/04/19 06:44:37;;;;;;;2.20;1.90;;;12.70;1.00;;;;;;5096360;28;20776;-82
2022/04/19 06:47:07;;;;;;;4.00;2.60;;;12.70;1.00;;;;;;5068920;28;20490;-82
2022/04/19 06:49:35;;;;;;;4.17;2.83;;;12.70;1.00;;;;;;5072765;28;20549;-81
2022/04/19 06:52:06;;;;;;;5.30;2.87;;;12.70;1.00;;;;;;5072587;28;20504;-82
2022/04/19 06:54:35;;;;;;;3.60;2.83;;;12.80;1.00;;;;;;5071545;28;20447;-81
2022/04/19 06:57:03;;;;;;;3.53;2.80;;;12.60;1.00;;;;;;5071211;28;20482;-81
2022/04/19 06:59:33;;;;;;;6.47;3.07;;;13.10;1.00;;;;;;5071926;28;20534;-81
2022/04/19 07:02:01;;;;;;;6.47;3.13;;;13.20;1.00;;;;;;5070702;28;20517;-80
2022/04/19 07:04:30;;;;;;;4.53;2.90;;;13.40;1.00;;;;;;5070888;28;20497;-82
2022/04/19 07:06:58;;;;;;;5.73;2.73;;;13.50;1.00;;;;;;5072728;28;20470;-80
2022/04/19 07:09:27;;;;;;;4.20;2.30;;;13.40;1.00;;;;;;5070672;28;21042;-81
2022/04/19 07:11:56;;;;;;;3.20;2.57;;;13.50;1.00;;;;;;5068761;28;20472;-82
2022/04/19 07:14:24;;;;;;;2.73;2.50;;;13.70;1.00;;;;;;5064644;28;20959;-81
2022/04/19 07:16:54;;;;;;;4.20;1.90;;;13.90;2.70;;;;;;5068106;28;20507;-81
2022/04/19 07:19:22;;;;;;;3.20;2.37;;;14.00;1.00;;;;;;5064209;28;20455;-82
2022/04/19 07:27:24;;;;;;;3.07;2.30;;;14.30;1.00;;;;;;5058216;28;20487;-82
2022/04/19 07:29:52;;;;;;;6.37;2.63;;;14.30;3.80;;;;;;5067310;28;20449;-81
2022/04/19 07:32:22;;;;;;;3.43;2.73;;;14.30;1.00;;;;;;5058407;28;21013;-82
2022/04/19 07:34:51;;;;;;;3.93;2.47;;;14.40;1.00;;;;;;5057567;28;20487;-81
2022/04/19 07:37:19;;;;;;;3.20;2.67;;;14.50;1.00;;;;;;5067940;28;20617;-80
2022/04/19 07:39:48;;;;;;;2.30;2.10;;;14.70;1.00;;;;;;5067746;28;21164;-83
2022/04/19 07:42:16;;;;;;;3.77;1.93;;;14.80;1.00;;;;;;5065338;28;20469;-81
2022/04/19 07:44:44;;;;;;;2.73;2.53;;;15.00;1.00;;;;;;5063077;28;20444;-81
2022/04/19 07:47:14;;;;;;;3.50;2.50;;;15.10;1.00;;;;;;5063373;28;21341;-81
2022/04/19 07:49:44;;;;;;;3.57;2.67;;;15.30;1.00;;;;;;5066153;28;20511;-82
2022/04/19 07:52:12;;;;;;;4.03;2.90;;;15.40;1.00;;;;;;5062451;28;20462;-80
2022/04/19 07:54:40;;;;;;;2.50;2.23;;;15.50;1.00;;;;;;5064030;28;20461;-82
2022/04/19 07:57:09;;;;;;;3.37;2.57;;;15.60;1.00;;;;;;5067354;28;20474;-82
2022/04/19 07:59:37;;;;;;;4.77;2.70;;;15.30;2.00;;;;;;5056770;28;20536;-81
2022/04/19 08:02:06;;;;;;;2.93;2.70;;;15.60;1.00;;;;;;5062945;28;20491;-81
2022/04/19 08:04:34;;;;;;;4.60;2.47;;;15.70;1.00;;;;;;5065133;28;20556;-82
2022/04/19 08:07:04;;;;;;;3.20;2.27;;;15.70;1.00;;;;;;5069057;28;20544;-81
2022/04/19 08:09:33;;;;;;;3.13;2.43;;;15.70;1.00;;;;;;5066175;28;20466;-82
2022/04/19 08:12:01;;;;;;;3.38;2.38;;;15.80;1.00;;;;;;5064534;28;20438;-82
2022/04/19 08:14:29;;;;;;;4.23;2.10;;;15.90;1.00;;;;;;5066456;28;20202;-83
2022/04/19 08:16:57;;;;;;;3.27;2.40;;;15.90;1.00;;;;;;5074693;28;21084;-82
2022/04/19 08:19:26;;;;;;;2.90;2.37;;;15.90;1.00;;;;;;5067259;28;20473;-81
2022/04/19 08:21:54;;;;;;;3.13;2.40;;;16.00;1.00;;;;;;5063099;28;21232;-81
2022/04/19 08:24:24;;;;;;;3.90;2.37;;;16.10;1.00;;;;;;5063749;28;20489;-82
2022/04/19 08:26:52;;;;;;;3.30;2.20;;;16.10;1.00;;;;;;5064341;28;20890;-82
2022/04/19 08:29:20;;;;;;;2.47;2.20;;;16.20;1.00;;;;;;5064670;28;20487;-82
2022/04/19 08:31:48;;;;;;;4.77;2.53;;;16.20;1.00;;;;;;5066252;28;20460;-81
2022/04/19 08:34:17;;;;;;;5.27;2.40;;;16.30;1.00;;;;;;5102326;28;20470;-81
2022/04/19 08:36:46;;;;;;;3.20;2.10;;;16.40;1.00;;;;;;5070968;28;20475;-83
2022/04/19 08:39:15;;;;;;;3.23;2.23;;;16.40;1.00;;;;;;5069968;28;20455;-81
2022/04/19 08:41:45;;;;;;;3.90;2.50;;;16.50;1.00;;;;;;5060925;28;20485;-83
2022/04/19 08:44:15;;;;;;;2.60;2.23;;;16.50;1.00;;;;;;5068980;28;20468;-81
2022/04/19 08:46:45;;;;;;;2.90;2.23;;;16.60;1.00;;;;;;5092209;27;20481;-80
2022/04/19 08:49:13;;;;;;;1.90;1.43;;;16.70;1.00;;;;;;5063944;28;20545;-82
2022/04/19 08:51:41;;;;;;;2.00;1.80;;;16.70;1.00;;;;;;5067650;28;20785;-81
2022/04/19 08:59:43;;;;;;;1.10;1.10;;;16.90;1.00;;;;;;5063899;28;20992;-82
2022/04/19 09:02:22;;;;;;;1.80;1.40;;;17.00;1.00;;;;;;5060615;28;20467;-82
2022/04/19 09:04:51;;;;;;;1.60;1.47;;;17.10;1.00;;;;;;5065537;28;20460;-80
2022/04/19 09:07:21;;;;;;;2.33;1.27;;;17.10;1.00;;;;;;5066607;28;20473;-82
2022/04/19 09:10:00;;;;;;;3.20;1.50;;;17.20;1.00;;;;;;5059201;28;20467;-82
2022/04/19 09:12:29;;;;;;;1.47;1.20;;;17.30;1.00;;;;;;5057096;28;21075;-82
2022/04/19 09:14:59;;;;;;;1.37;1.20;;;17.30;1.00;;;;;;5060011;28;20986;-81
2022/04/19 09:17:32;;;;;;;1.63;1.37;;;17.30;1.00;;;;;;5058071;28;20508;-81
2022/04/19 09:20:15;;;;;;;1.37;1.20;;;17.40;1.00;;;;;;5063220;28;20469;-81
2022/04/19 09:22:44;;;;;;;1.20;0.93;;;17.50;1.00;;;;;;5058290;28;20912;-80
2022/04/19 09:25:18;;;;;;;1.87;1.10;;;17.60;1.00;;;;;;5060391;28;20542;-80
2022/04/19 09:27:49;;;;;;;2.70;1.20;;;17.70;1.00;;;;;;5055256;28;20447;-80
2022/04/19 09:30:19;;;;;;;2.50;1.10;;;17.70;1.00;;;;;;5058107;28;20963;-82
2022/04/19 09:33:05;;;;;;;1.20;1.10;;;17.70;1.00;;;;;;5065241;28;20434;-82
2022/04/19 09:35:37;;;;;;;4.23;1.60;;;17.70;1.00;;;;;;5067308;28;20452;-82
2022/04/19 09:38:07;;;;;;;2.03;1.37;;;17.70;1.00;;;;;;5064445;28;20457;-82
2022/04/19 09:40:37;;;;;;;2.50;1.40;;;17.70;1.00;;;;;;5060190;28;20451;-81
2022/04/19 09:43:15;;;;;;;1.30;1.20;;;17.70;1.00;;;;;;5062910;28;20486;-81
2022/04/19 09:45:50;;;;;;;2.20;1.43;;;17.80;1.00;;;;;;5060569;28;21098;-80
2022/04/19 09:48:19;;;;;;;1.33;1.23;;;17.90;1.00;;;;;;5065491;28;20464;-82
2022/04/19 09:50:52;;;;;;;1.30;1.20;;;17.90;1.00;;;;;;5055813;28;20453;-81
2022/04/19 09:53:22;;;;;;;1.70;1.20;;;18.00;1.00;;;;;;5061139;28;20456;-81
2022/04/19 09:55:52;;;;;;;1.13;1.03;;;17.90;1.00;;;;;;5057743;28;20463;-81
2022/04/19 09:58:23;;;;;;;1.40;1.30;;;18.00;1.00;;;;;;5061478;28;20456;-81
2022/04/19 10:00:52;;;;;;;1.53;1.40;;;18.00;1.00;;;;;;5054739;28;20851;-81
2022/04/19 10:08:54;;;;;;;1.60;1.40;;;18.20;1.00;;;;;;5056582;28;20456;-81
2022/04/19 10:11:26;;;;;;;1.70;1.60;;;18.20;1.00;;;;;;5063680;28;20452;-81
2022/04/19 10:13:56;;;;;;;1.77;1.60;;;18.30;1.00;;;;;;5066963;28;20448;-82
2022/04/19 10:16:28;;;;;;;2.40;1.60;;;18.40;1.00;;;;;;5064352;28;20449;-78
2022/04/19 10:18:57;;;;;;;1.40;1.30;;;18.40;1.00;;;;;;5056071;28;20205;-80
2022/04/19 10:21:29;;;;;;;2.03;1.50;;;18.40;1.00;;;;;;5065020;28;20462;-80
2022/04/19 10:24:13;;;;;;;1.43;1.33;;;18.40;1.00;;;;;;5064464;28;20497;-80
2022/04/19 10:26:46;;;;;;;1.35;1.25;;;18.50;1.00;;;;;;5060807;28;20458;-80
2022/04/19 10:29:21;;;;;;;3.20;1.33;;;18.60;1.30;;;;;;5057530;28;20204;-80
2022/04/19 10:31:58;;;;;;;1.73;1.23;;;18.70;1.00;;;;;;5057241;28;20453;-81
2022/04/19 10:34:28;;;;;;;1.90;1.50;;;18.70;1.00;;;;;;5052400;28;20439;-80
2022/04/19 10:36:58;;;;;;;1.47;1.20;;;18.80;1.00;;;;;;5049055;28;20475;-80
2022/04/19 10:39:30;;;;;;;1.40;1.23;;;18.80;1.00;;;;;;5053177;28;20454;-80
2022/04/19 10:41:59;;;;;;;1.73;1.33;;;18.90;1.60;;;;;;5045273;28;20490;-80
2022/04/19 10:44:31;;;;;;;1.70;1.30;;;19.00;14.20;;;;;;5045617;28;20844;-80
2022/04/19 10:47:13;;;;;;;4.40;1.90;;;19.00;2.40;;;;;;5043826;28;20471;-80
2022/04/19 10:50:00;;;;;;;5.27;1.90;;;19.00;1.10;;;;;;5047550;28;20545;-80
2022/04/19 10:52:51;;;;;;;2.07;1.33;;;18.90;1.00;;;;;;5055048;28;20443;-81
2022/04/19 10:55:27;;;;;;;1.73;1.37;;;18.90;1.00;;;;;;5047392;28;20508;-81
2022/04/19 10:58:12;;;;;;;1.53;1.43;;;18.90;1.00;;;;;;5045130;28;20448;-80
2022/04/19 11:00:47;;;;;;;2.10;1.50;;;19.00;1.40;;;;;;5049341;28;20515;-81
2022/04/19 11:03:49;;;;;;;2.70;1.77;;;19.10;3.90;;;;;;5047675;28;20480;-80
2022/04/19 11:06:33;;;;;;;1.60;1.47;;;19.00;1.00;;;;;;5048228;28;20489;-79
2022/04/19 11:09:21;;;;;;;1.27;1.10;;;19.00;1.00;;;;;;5049388;28;20458;-82
2022/04/19 11:11:51;;;;;;;1.97;1.30;;;19.10;1.90;;;;;;5049370;28;20489;-81
2022/04/19 11:14:45;;;;;;;1.50;1.30;;;19.10;1.90;;;;;;5053917;28;20454;-80
2022/04/19 11:17:27;;;;;;;3.22;1.38;;;19.20;2.70;;;;;;5047541;28;20945;-79
2022/04/19 11:20:09;;;;;;;1.57;1.47;;;19.20;1.70;;;;;;5047394;28;20200;-81
2022/04/19 11:22:46;;;;;;;1.87;1.20;;;19.30;2.70;;;;;;5048076;28;20486;-80
2022/04/19 11:25:14;;;;;;;2.27;1.67;;;19.30;3.50;;;;;;5049890;28;21005;-80
2022/04/19 11:28:14;;;;;;;1.70;1.42;;;19.30;14.10;;;;;;5059782;28;20441;-81
2022/04/19 11:30:57;;;;;;;3.50;1.30;;;19.40;6.10;;;;;;5055189;28;20951;-82
2022/04/19 11:33:29;;;;;;;3.50;1.33;;;19.40;3.10;;;;;;5056425;28;21305;-81
2022/04/19 11:36:02;;;;;;;1.67;1.30;;;19.40;3.30;;;;;;5055455;28;20477;-81
2022/04/19 11:38:32;;;;;;;2.40;1.90;;;19.50;5.00;;;;;;5054263;28;20465;-80
2022/04/19 11:46:47;;;;;;;2.13;1.93;;;19.50;3.00;;;;;;5058292;28;20479;-82
2022/04/19 11:49:28;;;;;;;2.90;1.67;;;19.60;3.70;;;;;;5065888;28;20528;-80
2022/04/19 11:51:58;;;;;;;2.50;1.50;;;19.50;3.30;;;;;;5062404;28;20524;-80
2022/04/19 11:54:28;;;;;;;1.70;1.33;;;19.60;8.00;;;;;;5062051;28;20447;-80
2022/04/19 11:56:58;;;;;;;3.23;1.77;;;19.70;5.30;;;;;;5058420;28;20880;-82
2022/04/19 11:59:30;;;;;;;1.67;1.57;;;19.70;5.30;;;;;;5064143;28;20458;-81
2022/04/19 12:01:59;;;;;;;1.17;1.07;;;19.60;4.80;;;;;;5061226;28;20450;-81
2022/04/19 12:04:29;;;;;;;2.10;1.30;;;19.70;5.00;;;;;;5061456;28;20589;-81
2022/04/19 12:07:01;;;;;;;2.30;1.30;;;19.60;2.50;;;;;;5062727;28;20535;-80
2022/04/19 12:09:30;;;;;;;1.80;1.50;;;19.80;5.20;;;;;;5064951;28;20458;-80
2022/04/19 12:12:05;;;;;;;1.70;1.53;;;19.70;3.70;;;;;;5062647;28;21137;-80
2022/04/19 12:14:33;;;;;;;1.70;1.60;;;19.70;4.10;;;;;;5064216;28;20461;-80
2022/04/19 12:17:03;;;;;;;1.80;1.70;;;19.80;6.20;;;;;;5065815;28;20478;-80
2022/04/19 12:19:38;;;;;;;1.50;1.40;;;19.70;4.10;;;;;;5063818;28;20548;-80
2022/04/19 12:22:18;;;;;;;1.60;1.40;;;19.70;5.70;;;;;;5065367;28;20519;-81
2022/04/19 12:24:47;;;;;;;2.20;1.47;;;19.80;6.00;;;;;;5064293;28;20487;-81
2022/04/19 12:27:17;;;;;;;1.80;1.60;;;19.80;6.20;;;;;;5063696;28;20470;-81
2022/04/19 12:29:59;;;;;;;3.03;1.40;;;19.90;6.20;;;;;;5064143;28;20465;-80
2022/04/19 12:32:29;;;;;;;3.70;1.30;;;19.90;5.90;;;;;;5064171;28;20454;-80
2022/04/19 12:35:09;;;;;;;1.63;1.20;;;19.90;7.10;;;;;;5061582;28;20539;-79
2022/04/19 12:37:37;;;;;;;1.97;1.87;;;20.00;6.70;;;;;;5060995;28;21025;-80
2022/04/19 12:40:07;;;;;;;2.23;1.70;;;20.00;8.00;;;;;;5078133;28;20470;-79
2022/04/19 12:42:52;;;;;;;2.00;1.80;;;20.00;6.30;;;;;;5061294;28;20449;-80
2022/04/19 12:45:20;;;;;;;1.70;1.40;;;20.00;6.70;;;;;;5060162;28;20475;-80
2022/04/19 12:47:50;;;;;;;1.47;1.17;;;20.00;8.00;;;;;;5063380;28;20489;-81
2022/04/19 12:50:21;;;;;;;2.23;1.60;;;20.00;6.20;;;;;;5067625;28;20458;-80
2022/04/19 12:52:49;;;;;;;2.37;1.33;;;20.00;6.70;;;;;;5068906;28;20461;-80
2022/04/19 12:58:13;;;;;;;1.43;1.23;;;20.00;5.90;;;;;;5046576;28;20467;-81
2022/04/19 13:00:41;;;;;;;1.93;1.37;;;20.10;8.80;;;;;;5056259;28;20458;-81
2022/04/19 13:03:10;;;;;;;2.67;1.83;;;20.10;8.40;;;;;;5059134;28;20466;-80
2022/04/19 13:13:53;;;;;;;2.40;2.00;;;20.10;5.80;;;;;;5056168;28;20807;-81
2022/04/19 13:16:21;;;;;;;2.60;1.40;;;20.00;7.20;;;;;;5057773;28;20490;-79
2022/04/19 13:18:50;;;;;;;2.63;1.67;;;20.10;8.40;;;;;;5061111;28;21042;-81
2022/04/19 13:21:19;;;;;;;2.30;1.60;;;20.10;8.20;;;;;;5065628;28;20504;-81
2022/04/19 13:23:48;;;;;;;2.27;1.70;;;20.20;8.70;;;;;;5056967;28;20493;-81
2022/04/19 13:26:18;;;;;;;3.10;1.70;;;20.20;9.70;;;;;;5053273;28;20985;-81
2022/04/19 13:28:46;;;;;;;2.30;1.80;;;20.20;8.70;;;;;;5060116;28;20469;-81
2022/04/19 13:31:14;;;;;;;2.30;1.60;;;20.20;7.50;;;;;;5056553;28;20450;-80
2022/04/19 13:33:43;;;;;;;2.50;1.50;;;20.20;7.20;;;;;;5058187;28;20457;-81
2022/04/19 13:36:11;;;;;;;2.10;1.80;;;20.20;7.30;;;;;;5061607;28;20462;-80
2022/04/19 13:38:40;;;;;;;1.70;1.50;;;20.20;17.30;;;;;;5058858;28;20469;-80
2022/04/19 13:41:10;;;;;;;1.90;1.70;;;20.20;7.50;;;;;;5057052;28;20455;-80
2022/04/19 13:43:38;;;;;;;1.80;1.70;;;20.30;8.20;;;;;;5063974;28;20469;-81
2022/04/19 13:46:06;;;;;;;1.90;1.70;;;20.30;8.30;;;;;;5063825;28;21032;-80
2022/04/19 13:48:35;;;;;;;3.03;1.63;;;20.30;8.70;;;;;;5067400;28;20955;-81
2022/04/19 13:51:03;;;;;;;1.73;1.63;;;20.40;8.40;;;;;;5062230;28;20469;-82
2022/04/19 13:53:33;;;;;;;3.27;1.93;;;20.40;9.70;;;;;;5061516;28;20449;-80
2022/04/19 13:56:03;;;;;;;2.00;1.60;;;20.50;9.10;;;;;;5062111;28;20540;-80